createdAt,value
2019-05-16T00:00:36.971Z,6.03
2019-05-16T00:03:09.762Z,4.93
2019-05-16T00:05:51.510Z,2.67
2019-05-16T00:08:18.746Z,4.90
2019-05-16T00:10:51.543Z,4.63
2019-05-16T00:13:28.231Z,4.50
2019-05-16T00:16:00.987Z,3.97
2019-05-16T00:18:33.687Z,3.20
2019-05-16T00:21:08.564Z,4.93
2019-05-16T00:23:41.163Z,7.63
2019-05-16T00:26:13.878Z,3.63
2019-05-16T00:28:48.463Z,7.87
2019-05-16T00:31:21.302Z,2.80
2019-05-16T00:33:57.788Z,4.40
2019-05-16T00:36:31.701Z,4.00
2019-05-16T00:39:05.033Z,3.47
2019-05-16T00:41:38.546Z,4.63
2019-05-16T00:44:11.456Z,7.27
2019-05-16T00:46:44.222Z,3.37
2019-05-16T00:49:18.670Z,4.03
2019-05-16T00:51:51.459Z,5.13
2019-05-16T00:54:24.232Z,4.20
2019-05-16T00:56:57.918Z,5.80
2019-05-16T00:59:31.504Z,5.33
2019-05-16T01:02:05.952Z,6.37
2019-05-16T01:04:38.564Z,6.07
2019-05-16T01:07:11.238Z,3.27
2019-05-16T01:09:45.663Z,4.23
2019-05-16T01:12:19.324Z,4.40
2019-05-16T01:14:51.982Z,5.80
2019-05-16T01:17:28.169Z,4.17
2019-05-16T01:20:00.317Z,4.37
2019-05-16T01:22:34.128Z,3.80
2019-05-16T01:25:09.509Z,6.07
2019-05-16T01:27:41.427Z,4.67
2019-05-16T01:30:14.212Z,5.00
2019-05-16T01:32:48.956Z,6.77
2019-05-16T01:35:21.422Z,4.37
2019-05-16T01:37:54.169Z,5.37
2019-05-16T01:40:28.156Z,5.37
2019-05-16T01:43:00.873Z,7.23
2019-05-16T01:45:33.629Z,3.20
2019-05-16T01:48:08.059Z,9.20
2019-05-16T01:50:41.008Z,8.83
2019-05-16T01:53:13.580Z,5.50
2019-05-16T01:55:48.603Z,3.33
2019-05-16T01:58:20.740Z,3.80
2019-05-16T02:01:11.158Z,3.80
2019-05-16T02:03:29.057Z,3.57
2019-05-16T02:06:01.652Z,4.63
2019-05-16T02:08:34.331Z,5.00
2019-05-16T02:11:08.572Z,8.57
2019-05-16T02:13:44.918Z,3.50
2019-05-16T02:16:18.690Z,5.20
2019-05-16T02:18:51.773Z,3.13
2019-05-16T02:21:24.457Z,2.90
2019-05-16T02:23:58.585Z,6.10
2019-05-16T02:26:32.714Z,4.50
2019-05-16T02:29:06.128Z,5.63
2019-05-16T02:31:42.214Z,4.53
2019-05-16T02:34:14.445Z,5.47
2019-05-16T02:36:47.079Z,9.90
2019-05-16T02:39:21.099Z,9.07
2019-05-16T02:41:54.075Z,4.43
2019-05-16T02:44:26.671Z,2.87
2019-05-16T02:47:01.522Z,4.00
2019-05-16T02:49:34.207Z,4.20
2019-05-16T02:52:07.130Z,7.47
2019-05-16T02:54:41.170Z,2.87
2019-05-16T02:57:14.235Z,3.90
2019-05-16T02:59:46.852Z,3.97
2019-05-16T03:02:20.605Z,3.37
2019-05-16T03:04:53.384Z,4.30
2019-05-16T03:07:37.743Z,5.60
2019-05-16T03:10:02.381Z,3.53
2019-05-16T03:12:37.383Z,4.17
2019-05-16T03:15:10.976Z,5.57
2019-05-16T03:17:43.951Z,5.33
2019-05-16T03:20:16.631Z,4.60
2019-05-16T03:22:51.961Z,4.80
2019-05-16T03:25:24.906Z,6.90
2019-05-16T03:27:57.589Z,4.77
2019-05-16T03:30:35.269Z,5.07
2019-05-16T03:33:05.911Z,4.00
2019-05-16T03:35:44.022Z,3.50
2019-05-16T03:38:13.148Z,3.83
2019-05-16T03:40:45.826Z,5.93
2019-05-16T03:43:21.553Z,3.60
2019-05-16T03:45:53.176Z,6.73
2019-05-16T03:48:25.950Z,7.07
2019-05-16T03:51:00.803Z,5.73
2019-05-16T03:53:33.177Z,4.37
2019-05-16T03:56:05.764Z,5.43
2019-05-16T03:58:41.172Z,3.07
2019-05-16T04:01:12.910Z,6.33
2019-05-16T04:03:45.629Z,3.10
2019-05-16T04:06:18.304Z,3.23
2019-05-16T04:08:51.236Z,3.00
2019-05-16T04:11:24.217Z,4.67
2019-05-16T04:13:57.125Z,3.73
2019-05-16T04:16:31.265Z,5.07
2019-05-16T04:19:04.369Z,3.40
2019-05-16T04:21:37.110Z,3.73
2019-05-16T04:24:12.156Z,3.50
2019-05-16T04:26:44.317Z,5.60
2019-05-16T04:29:17.010Z,3.00
2019-05-16T04:31:50.902Z,6.50
2019-05-16T04:34:24.980Z,4.47
2019-05-16T04:37:00.884Z,5.33
2019-05-16T04:39:32.305Z,3.93
2019-05-16T04:42:05.102Z,2.40
2019-05-16T04:44:41.355Z,4.30
2019-05-16T04:47:12.336Z,5.47
2019-05-16T04:49:45.001Z,7.90
2019-05-16T04:52:17.616Z,4.87
2019-05-16T04:54:51.172Z,4.37
2019-05-16T04:57:24.112Z,5.37
2019-05-16T04:59:56.843Z,3.30
2019-05-16T05:02:30.981Z,3.90
2019-05-16T05:05:04.220Z,3.70
2019-05-16T05:07:36.964Z,7.17
2019-05-16T05:10:11.241Z,6.10
2019-05-16T05:12:44.391Z,12.30
2019-05-16T05:15:17.196Z,8.33
2019-05-16T05:17:50.338Z,4.40
2019-05-16T05:20:23.093Z,4.30
2019-05-16T05:22:55.700Z,6.27
2019-05-16T05:25:30.734Z,3.40
2019-05-16T05:28:03.057Z,3.70
2019-05-16T05:30:35.770Z,4.37
2019-05-16T05:33:10.143Z,5.30
2019-05-16T05:35:43.016Z,5.80
2019-05-16T05:38:15.829Z,5.97
2019-05-16T05:40:50.874Z,6.13
2019-05-16T05:43:23.075Z,4.43
2019-05-16T05:45:55.772Z,3.20
2019-05-16T05:48:30.838Z,6.83
2019-05-16T05:51:02.894Z,6.07
2019-05-16T05:53:35.457Z,6.20
2019-05-16T05:56:11.496Z,4.77
2019-05-16T05:58:44.782Z,6.73
2019-05-16T06:01:20.256Z,6.53
2019-05-16T06:03:52.916Z,3.83
2019-05-16T06:06:25.619Z,4.10
2019-05-16T06:09:00.542Z,4.00
2019-05-16T06:11:33.202Z,8.93
2019-05-16T06:14:05.877Z,5.93
2019-05-16T06:16:40.206Z,5.80
2019-05-16T06:19:13.111Z,3.80
2019-05-16T06:21:45.875Z,4.27
2019-05-16T06:24:20.332Z,4.83
2019-05-16T06:26:53.178Z,5.40
2019-05-16T06:29:25.979Z,6.27
2019-05-16T06:32:00.289Z,6.45
2019-05-16T06:34:33.306Z,4.28
2019-05-16T06:37:06.013Z,11.00
2019-05-16T06:39:42.691Z,5.27
2019-05-16T06:42:14.506Z,6.97
2019-05-16T06:44:47.283Z,5.80
2019-05-16T06:47:22.979Z,8.60
2019-05-16T06:49:54.771Z,4.37
2019-05-16T06:52:30.148Z,6.17
2019-05-16T06:55:03.908Z,5.87
2019-05-16T06:57:36.694Z,5.87
2019-05-16T07:00:10.933Z,3.83
2019-05-16T07:02:43.940Z,6.03
2019-05-16T07:05:16.534Z,7.90
2019-05-16T07:07:51.103Z,3.47
2019-05-16T07:10:23.831Z,4.45
2019-05-16T07:12:56.459Z,3.85
2019-05-16T07:15:29.814Z,4.40
2019-05-16T07:18:02.654Z,2.62
2019-05-16T07:20:35.362Z,4.97
2019-05-16T07:23:10.089Z,7.30
2019-05-16T07:25:43.871Z,6.97
2019-05-16T07:28:16.643Z,3.27
2019-05-16T07:30:50.649Z,4.22
2019-05-16T07:33:23.436Z,5.00
2019-05-16T07:35:56.201Z,13.62
2019-05-16T07:38:30.942Z,7.30
2019-05-16T07:41:03.778Z,5.08
2019-05-16T07:43:36.523Z,5.47
2019-05-16T07:46:11.930Z,4.60
2019-05-16T07:48:46.335Z,5.42
2019-05-16T07:51:20.530Z,11.03
2019-05-16T07:53:53.364Z,5.60
2019-05-16T07:56:27.049Z,9.88
2019-05-16T07:59:00.901Z,4.08
2019-05-16T08:01:34.315Z,7.97
2019-05-16T08:04:07.049Z,10.23
2019-05-16T08:06:40.786Z,10.25
2019-05-16T08:09:14.502Z,7.42
2019-05-16T08:11:50.024Z,9.88
2019-05-16T08:14:21.889Z,6.62
2019-05-16T08:16:54.658Z,10.95
2019-05-16T08:19:30.613Z,5.55
2019-05-16T08:22:03.065Z,12.25
2019-05-16T08:27:12.178Z,8.65
2019-05-16T08:29:46.455Z,5.83
2019-05-16T08:32:22.938Z,7.58
2019-05-16T08:34:55.354Z,4.85
2019-05-16T08:37:38.575Z,5.55
2019-05-16T08:40:04.309Z,7.65
2019-05-16T08:42:36.998Z,34.63
2019-05-16T08:45:12.769Z,17.73
2019-05-16T08:47:45.259Z,18.37
2019-05-16T08:50:21.661Z,5.20
2019-05-16T08:52:54.238Z,5.00
2019-05-16T08:55:31.314Z,6.35
2019-05-16T08:58:03.428Z,5.53
2019-05-16T09:00:37.069Z,8.53
2019-05-16T09:03:12.251Z,5.87
2019-05-16T09:05:44.417Z,5.65
2019-05-16T09:08:17.154Z,5.28
2019-05-16T09:10:40.382Z,15.08
2019-05-16T09:11:00.663Z,5.28
2019-05-16T09:13:27.945Z,9.38
2019-05-16T09:16:00.196Z,2.70
2019-05-16T09:18:40.553Z,10.00
2019-05-16T09:21:07.718Z,4.83
2019-05-16T09:23:41.616Z,7.70
2019-05-16T09:26:16.943Z,5.42
2019-05-16T09:28:48.949Z,3.37
2019-05-16T09:31:21.680Z,5.67
2019-05-16T09:33:56.786Z,6.37
2019-05-16T09:36:28.963Z,8.15
2019-05-16T09:39:01.827Z,6.67
2019-05-16T09:41:49.789Z,4.97
2019-05-16T09:44:11.330Z,5.50
2019-05-16T09:46:44.049Z,4.90
2019-05-16T09:49:24.200Z,5.03
2019-05-16T09:51:51.263Z,7.97
2019-05-16T09:54:24.011Z,8.33
2019-05-16T09:56:57.262Z,5.42
2019-05-16T09:59:31.404Z,3.72
2019-05-16T10:02:07.373Z,6.78
2019-05-16T10:04:41.387Z,6.05
2019-05-16T10:07:14.224Z,6.35
2019-05-16T10:09:50.329Z,3.27
2019-05-16T10:12:21.666Z,5.00
2019-05-16T10:14:54.329Z,4.45
2019-05-16T10:17:27.351Z,7.85
2019-05-16T10:20:03.123Z,8.68
2019-05-16T10:22:37.372Z,5.90
2019-05-16T10:25:12.515Z,6.47
2019-05-16T10:27:47.366Z,4.20
2019-05-16T10:30:21.781Z,4.60
2019-05-16T10:32:54.566Z,4.20
2019-05-16T10:35:30.030Z,5.37
2019-05-16T10:38:02.177Z,4.55
2019-05-16T10:40:36.919Z,4.83
2019-05-16T10:43:09.845Z,7.05
2019-05-16T10:45:42.621Z,6.78
2019-05-16T10:48:17.553Z,4.92
2019-05-16T10:50:50.485Z,6.40
2019-05-16T10:53:50.281Z,6.58
2019-05-16T10:55:58.486Z,7.45
2019-05-16T10:58:36.972Z,7.75
2019-05-16T11:01:22.442Z,5.87
2019-05-16T11:03:41.657Z,6.80
2019-05-16T11:06:25.165Z,5.67
2019-05-16T11:08:50.129Z,5.03
2019-05-16T11:11:22.864Z,4.75
2019-05-16T11:13:55.529Z,6.87
2019-05-16T11:16:29.452Z,6.37
2019-05-16T11:19:14.385Z,6.42
2019-05-16T11:21:37.657Z,14.30
2019-05-16T11:24:12.735Z,14.35
2019-05-16T11:26:47.354Z,6.80
2019-05-16T11:29:20.252Z,6.65
2019-05-16T11:31:53.081Z,6.72
2019-05-16T11:34:26.624Z,9.95
2019-05-16T11:37:00.615Z,8.33
2019-05-16T11:39:33.344Z,8.95
2019-05-16T11:42:08.150Z,4.42
2019-05-16T11:44:40.701Z,6.62
2019-05-16T11:47:13.380Z,5.80
2019-05-16T11:49:47.573Z,5.80
2019-05-16T11:52:20.505Z,4.78
2019-05-16T11:54:53.211Z,8.63
2019-05-16T11:57:26.017Z,5.70
2019-05-16T11:59:58.890Z,7.53
2019-05-16T12:02:31.870Z,6.22
2019-05-16T12:05:05.122Z,5.40
2019-05-16T12:07:44.416Z,12.25
2019-05-16T12:10:16.288Z,6.33
2019-05-16T12:12:50.175Z,6.37
2019-05-16T12:15:27.170Z,9.13
2019-05-16T12:18:04.645Z,7.12
2019-05-16T12:20:34.087Z,4.83
2019-05-16T12:23:07.918Z,10.15
2019-05-16T12:25:41.216Z,5.45
2019-05-16T12:28:13.995Z,4.92
2019-05-16T12:30:47.192Z,6.72
2019-05-16T12:33:20.104Z,5.67
2019-05-16T12:35:52.865Z,6.17
2019-05-16T12:38:27.680Z,7.05
2019-05-16T12:41:00.224Z,10.30
2019-05-16T12:43:46.088Z,5.75
2019-05-16T12:46:07.787Z,7.05
2019-05-16T12:48:40.709Z,9.10
2019-05-16T12:51:13.384Z,7.33
2019-05-16T12:53:48.045Z,10.15
2019-05-16T12:56:20.791Z,8.18
2019-05-16T12:58:54.580Z,8.28
2019-05-16T13:01:33.709Z,6.90
2019-05-16T13:04:03.769Z,5.70
2019-05-16T13:06:37.110Z,6.75
2019-05-16T13:09:10.068Z,4.60
2019-05-16T13:11:42.793Z,4.03
2019-05-16T13:14:17.030Z,4.33
2019-05-16T13:16:49.889Z,9.90
2019-05-16T13:19:22.852Z,4.28
2019-05-16T13:21:57.819Z,3.37
2019-05-16T13:24:30.723Z,4.28
2019-05-16T13:27:08.335Z,8.28
2019-05-16T13:29:40.047Z,5.83
2019-05-16T13:32:12.839Z,10.80
2019-05-16T13:34:46.948Z,4.55
2019-05-16T13:37:19.642Z,5.53
2019-05-16T13:39:52.523Z,6.90
2019-05-16T13:42:26.852Z,8.40
2019-05-16T13:44:59.679Z,7.85
2019-05-16T13:47:32.552Z,13.75
2019-05-16T13:50:11.490Z,7.58
2019-05-16T13:52:41.418Z,10.78
2019-05-16T13:55:16.745Z,11.85
2019-05-16T13:57:51.099Z,11.35
2019-05-16T14:00:23.767Z,9.23
2019-05-16T14:02:56.554Z,9.10
2019-05-16T14:05:30.744Z,6.55
2019-05-16T14:08:06.618Z,7.40
2019-05-16T14:10:38.514Z,7.12
2019-05-16T14:13:16.532Z,14.05
2019-05-16T14:15:49.593Z,7.60
2019-05-16T14:18:22.589Z,8.38
2019-05-16T14:20:57.297Z,5.90
2019-05-16T14:23:30.011Z,8.25
2019-05-16T14:26:02.718Z,8.10
2019-05-16T14:28:37.593Z,5.47
2019-05-16T14:31:11.994Z,8.90
2019-05-16T14:33:44.654Z,7.55
2019-05-16T14:36:17.488Z,6.45
2019-05-16T14:38:51.454Z,8.55
2019-05-16T14:41:24.468Z,10.48
2019-05-16T14:43:57.349Z,7.87
2019-05-16T14:46:30.054Z,8.83
2019-05-16T14:49:07.489Z,10.05
2019-05-16T14:51:39.275Z,5.17
2019-05-16T14:54:12.070Z,6.28
2019-05-16T14:56:47.381Z,6.55
2019-05-16T14:59:19.605Z,7.10
2019-05-16T15:01:52.328Z,8.20
2019-05-16T15:04:29.820Z,6.50
2019-05-16T15:06:59.790Z,10.85
2019-05-16T15:09:32.541Z,7.60
2019-05-16T15:12:06.870Z,6.55
2019-05-16T15:14:39.923Z,12.90
2019-05-16T15:17:12.698Z,6.25
2019-05-16T15:19:48.329Z,6.05
2019-05-16T15:22:21.004Z,5.65
2019-05-16T15:24:59.069Z,7.90
2019-05-16T15:27:30.353Z,4.83
2019-05-16T15:30:06.823Z,5.17
2019-05-16T15:32:38.907Z,4.60
2019-05-16T15:35:12.843Z,4.12
2019-05-16T15:37:48.421Z,5.65
2019-05-16T15:40:23.225Z,5.72
2019-05-16T15:42:58.871Z,6.20
2019-05-16T15:45:39.332Z,9.03
2019-05-16T15:48:08.990Z,5.30
2019-05-16T15:50:42.158Z,7.50
2019-05-16T15:53:17.499Z,14.15
2019-05-16T15:55:50.085Z,12.25
2019-05-16T15:58:22.875Z,14.15
2019-05-16T16:00:57.931Z,13.38
2019-05-16T16:03:30.313Z,8.65
2019-05-16T16:06:03.090Z,13.83
2019-05-16T16:08:37.657Z,12.25
2019-05-16T16:11:10.572Z,10.50
2019-05-16T16:13:43.406Z,14.13
2019-05-16T16:16:17.417Z,12.70
2019-05-16T16:18:51.526Z,11.90
2019-05-16T16:21:27.459Z,14.30
2019-05-16T16:24:00.552Z,8.98
2019-05-16T16:26:33.712Z,12.47
2019-05-16T16:29:07.294Z,9.98
2019-05-16T16:31:40.353Z,17.25
2019-05-16T16:34:12.962Z,18.30
2019-05-16T16:36:47.599Z,16.37
2019-05-16T16:39:21.439Z,13.38
2019-05-16T16:41:56.747Z,11.78
2019-05-16T16:44:28.880Z,8.30
2019-05-16T16:47:03.318Z,11.05
2019-05-16T16:49:39.483Z,9.83
2019-05-16T16:52:10.785Z,13.03
2019-05-16T16:54:47.439Z,12.65
2019-05-16T16:57:19.705Z,11.40
2019-05-16T16:59:53.511Z,11.57
2019-05-16T17:02:27.861Z,10.05
2019-05-16T17:05:02.435Z,11.68
2019-05-16T17:07:37.305Z,15.95
2019-05-16T17:10:10.919Z,10.48
2019-05-16T17:12:43.598Z,13.35
2019-05-16T17:15:17.086Z,10.60
2019-05-16T17:17:50.095Z,9.45
2019-05-16T17:20:23.371Z,13.18
2019-05-16T17:22:57.244Z,9.05
2019-05-16T17:25:30.860Z,19.62
2019-05-16T17:28:03.711Z,13.18
2019-05-16T17:30:37.029Z,16.87
2019-05-16T17:33:10.075Z,11.83
2019-05-16T17:35:42.994Z,13.00
2019-05-16T17:38:17.410Z,10.23
2019-05-16T17:40:50.296Z,13.25
2019-05-16T17:43:24.306Z,11.38
2019-05-16T17:45:57.672Z,11.03
2019-05-16T17:48:30.731Z,10.05
2019-05-16T17:51:03.723Z,9.75
2019-05-16T17:53:37.832Z,8.93
2019-05-16T17:56:10.617Z,14.13
2019-05-16T17:58:43.420Z,10.75
2019-05-16T18:01:17.068Z,12.00
2019-05-16T18:03:50.262Z,16.10
2019-05-16T18:06:23.404Z,11.10
2019-05-16T18:08:57.164Z,11.45
2019-05-16T18:11:30.386Z,9.90
2019-05-16T18:14:03.255Z,10.40
2019-05-16T18:16:52.343Z,8.30
2019-05-16T18:19:13.468Z,10.28
2019-05-16T18:21:46.483Z,10.82
2019-05-16T18:24:19.291Z,8.23
2019-05-16T18:26:53.043Z,12.05
2019-05-16T18:29:27.048Z,8.60
2019-05-16T18:31:59.806Z,9.63
2019-05-16T18:34:32.543Z,10.78
2019-05-16T18:37:06.955Z,11.85
2019-05-16T18:39:39.683Z,16.52
2019-05-16T18:42:16.609Z,10.00
2019-05-16T18:44:48.737Z,12.85
2019-05-16T18:47:23.317Z,11.75
2019-05-16T18:49:57.507Z,12.20
2019-05-16T18:52:30.398Z,11.48
2019-05-16T18:55:03.398Z,18.65
2019-05-16T18:57:37.743Z,11.87
2019-05-16T19:00:11.663Z,14.97
2019-05-16T19:02:44.442Z,12.57
2019-05-16T19:05:17.612Z,14.28
2019-05-16T19:07:51.531Z,11.55
2019-05-16T19:10:26.824Z,10.80
2019-05-16T19:12:59.832Z,12.00
2019-05-16T19:15:32.680Z,12.47
2019-05-16T19:18:06.974Z,13.65
2019-05-16T19:20:39.964Z,11.55
2019-05-16T19:23:14.387Z,13.08
2019-05-16T19:25:47.466Z,14.87
2019-05-16T19:28:21.688Z,12.03
2019-05-16T19:30:57.009Z,12.23
2019-05-16T19:33:29.156Z,12.20
2019-05-16T19:36:01.931Z,12.63
2019-05-16T19:38:37.496Z,11.03
2019-05-16T19:41:10.598Z,14.37
2019-05-16T19:43:43.366Z,13.05
2019-05-16T19:46:16.247Z,12.13
2019-05-16T19:48:48.995Z,11.07
2019-05-16T19:51:23.680Z,12.00
2019-05-16T19:53:56.694Z,12.97
2019-05-16T19:56:30.684Z,13.13
2019-05-16T19:59:03.528Z,13.13
2019-05-16T20:01:36.965Z,13.20
2019-05-16T20:04:09.737Z,20.23
2019-05-16T20:06:42.526Z,18.27
2019-05-16T20:09:16.619Z,13.50
2019-05-16T20:11:51.411Z,16.00
2019-05-16T20:14:24.173Z,17.57
2019-05-16T20:16:57.000Z,15.17
2019-05-16T20:19:30.877Z,24.27
2019-05-16T20:22:03.810Z,16.37
2019-05-16T20:24:36.577Z,19.70
2019-05-16T20:27:10.541Z,17.60
2019-05-16T20:29:43.642Z,19.43
2019-05-16T20:32:16.932Z,18.00
2019-05-16T20:34:50.979Z,18.17
2019-05-16T20:37:23.717Z,19.67
2019-05-16T20:39:58.433Z,16.27
2019-05-16T20:42:31.270Z,14.63
2019-05-16T20:45:04.419Z,14.43
2019-05-16T20:47:38.323Z,16.20
2019-05-16T20:50:12.858Z,15.93
2019-05-16T20:52:48.367Z,13.20
2019-05-16T20:55:20.503Z,14.43
2019-05-16T20:57:54.345Z,16.73
2019-05-16T21:00:28.215Z,19.77
2019-05-16T21:03:01.127Z,15.13
2019-05-16T21:05:33.824Z,17.87
2019-05-16T21:08:06.872Z,17.13
2019-05-16T21:10:41.498Z,17.27
2019-05-16T21:13:14.308Z,19.13
2019-05-16T21:15:48.864Z,17.93
2019-05-16T21:18:21.645Z,16.80
2019-05-16T21:20:54.233Z,21.30
2019-05-16T21:23:27.567Z,17.83
2019-05-16T21:26:03.015Z,21.80
2019-05-16T21:28:37.683Z,21.80
2019-05-16T21:31:11.502Z,23.77
2019-05-16T21:33:47.075Z,19.07
2019-05-16T21:36:19.998Z,19.03
2019-05-16T21:38:54.499Z,20.50
2019-05-16T21:41:27.196Z,20.43
2019-05-16T21:43:59.942Z,18.80
2019-05-16T21:46:36.533Z,19.90
2019-05-16T21:49:09.704Z,22.23
2019-05-16T21:51:42.329Z,23.10
2019-05-16T21:54:15.029Z,23.23
2019-05-16T21:56:47.778Z,21.53
2019-05-16T21:59:20.405Z,20.93
2019-05-16T22:01:53.213Z,26.17
2019-05-16T22:04:26.173Z,24.07
2019-05-16T22:06:59.233Z,25.43
2019-05-16T22:09:31.848Z,25.93
2019-05-16T22:12:06.749Z,27.67
2019-05-16T22:14:46.744Z,27.80
2019-05-16T22:17:19.784Z,31.47
2019-05-16T22:19:56.237Z,26.33
2019-05-16T22:22:29.979Z,31.07
2019-05-16T22:25:02.896Z,26.70
2019-05-16T22:27:36.040Z,30.67
2019-05-16T22:30:11.154Z,32.10
2019-05-16T22:32:44.083Z,31.00
2019-05-16T22:35:17.712Z,29.10
2019-05-16T22:37:55.535Z,33.57
2019-05-16T22:40:26.669Z,34.20
2019-05-16T22:42:59.357Z,33.50
2019-05-16T22:45:33.291Z,31.73
2019-05-16T22:48:06.984Z,34.90
2019-05-16T22:50:40.066Z,36.90
2019-05-16T22:53:12.801Z,30.10
2019-05-16T22:55:47.583Z,31.57
2019-05-16T22:58:20.144Z,36.87
2019-05-16T23:00:53.039Z,35.80
2019-05-16T23:03:26.729Z,37.30
2019-05-16T23:05:59.644Z,35.43
2019-05-16T23:08:36.395Z,39.13
2019-05-16T23:11:08.656Z,36.93
2019-05-16T23:13:41.241Z,37.00
2019-05-16T23:16:13.896Z,36.33
2019-05-16T23:18:46.735Z,39.93
2019-05-16T23:21:21.302Z,37.80
2019-05-16T23:23:54.074Z,43.43
2019-05-16T23:26:27.381Z,39.07
2019-05-16T23:29:00.240Z,35.00
2019-05-16T23:31:36.538Z,35.17
2019-05-16T23:34:10.584Z,33.27
2019-05-16T23:36:43.516Z,37.50
2019-05-16T23:39:16.265Z,39.07
2019-05-16T23:41:48.905Z,37.43
2019-05-16T23:44:22.862Z,36.77
2019-05-16T23:46:56.353Z,35.57
2019-05-16T23:49:32.369Z,39.83
2019-05-16T23:52:07.414Z,36.10
2019-05-16T23:54:39.877Z,30.77
2019-05-16T23:57:14.613Z,40.67
2019-05-16T23:59:47.429Z,35.10
